sensor_id;sensor_type;location;lat;lon;timestamp;P1;durP1;ratioP1;P2;durP2;ratioP2
31764;SDS011;18338;53.240;8.798;2023-12-20T00:00:26;13.95;;;2.70;;
31764;SDS011;18338;53.240;8.798;2023-12-20T00:03:00;10.80;;;1.95;;
31764;SDS011;18338;53.240;8.798;2023-12-20T00:05:27;12.82;;;4.70;;
31764;SDS011;18338;53.240;8.798;2023-12-20T00:07:54;9.55;;;1.85;;
31764;SDS011;18338;53.240;8.798;2023-12-20T00:10:20;12.65;;;2.70;;
31764;SDS011;18338;53.240;8.798;2023-12-20T00:12:47;11.15;;;1.45;;
31764;SDS011;18338;53.240;8.798;2023-12-20T00:15:14;17.92;;;2.95;;
31764;SDS011;18338;53.240;8.798;2023-12-20T00:17:41;10.30;;;1.85;;
31764;SDS011;18338;53.240;8.798;2023-12-20T00:20:08;15.40;;;1.77;;
31764;SDS011;18338;53.240;8.798;2023-12-20T00:22:35;10.48;;;2.15;;
31764;SDS011;18338;53.240;8.798;2023-12-20T00:25:02;8.35;;;1.63;;
31764;SDS011;18338;53.240;8.798;2023-12-20T00:27:29;11.15;;;2.00;;
31764;SDS011;18338;53.240;8.798;2023-12-20T00:29:56;13.60;;;2.35;;
31764;SDS011;18338;53.240;8.798;2023-12-20T00:32:23;13.88;;;1.92;;
31764;SDS011;18338;53.240;8.798;2023-12-20T00:34:49;9.63;;;2.10;;
31764;SDS011;18338;53.240;8.798;2023-12-20T00:37:16;10.35;;;2.80;;
31764;SDS011;18338;53.240;8.798;2023-12-20T00:39:43;8.15;;;1.42;;
31764;SDS011;18338;53.240;8.798;2023-12-20T00:42:10;12.65;;;2.28;;
31764;SDS011;18338;53.240;8.798;2023-12-20T00:44:37;9.30;;;2.50;;
31764;SDS011;18338;53.240;8.798;2023-12-20T00:47:03;9.82;;;2.03;;
31764;SDS011;18338;53.240;8.798;2023-12-20T00:49:30;10.93;;;2.65;;
31764;SDS011;18338;53.240;8.798;2023-12-20T00:51:57;9.80;;;2.25;;
31764;SDS011;18338;53.240;8.798;2023-12-20T00:54:24;12.48;;;2.70;;
31764;SDS011;18338;53.240;8.798;2023-12-20T00:56:51;10.52;;;2.00;;
31764;SDS011;18338;53.240;8.798;2023-12-20T00:59:18;13.27;;;3.03;;
31764;SDS011;18338;53.240;8.798;2023-12-20T01:01:45;9.38;;;2.15;;
31764;SDS011;18338;53.240;8.798;2023-12-20T01:04:12;7.28;;;2.03;;
31764;SDS011;18338;53.240;8.798;2023-12-20T01:06:39;14.98;;;2.72;;
31764;SDS011;18338;53.240;8.798;2023-12-20T01:09:06;12.15;;;1.88;;
31764;SDS011;18338;53.240;8.798;2023-12-20T01:11:32;15.32;;;3.15;;
31764;SDS011;18338;53.240;8.798;2023-12-20T01:13:59;12.43;;;2.10;;
31764;SDS011;18338;53.240;8.798;2023-12-20T01:16:26;11.63;;;2.33;;
31764;SDS011;18338;53.240;8.798;2023-12-20T01:18:53;10.75;;;1.83;;
31764;SDS011;18338;53.240;8.798;2023-12-20T01:21:20;11.10;;;2.78;;
31764;SDS011;18338;53.240;8.798;2023-12-20T01:23:47;13.00;;;2.28;;
31764;SDS011;18338;53.240;8.798;2023-12-20T01:26:14;11.98;;;2.08;;
31764;SDS011;18338;53.240;8.798;2023-12-20T01:28:41;9.68;;;2.03;;
31764;SDS011;18338;53.240;8.798;2023-12-20T01:31:08;11.57;;;2.38;;
31764;SDS011;18338;53.240;8.798;2023-12-20T01:33:35;7.10;;;1.98;;
31764;SDS011;18338;53.240;8.798;2023-12-20T01:36:02;5.78;;;1.77;;
31764;SDS011;18338;53.240;8.798;2023-12-20T01:38:29;8.40;;;2.28;;
31764;SDS011;18338;53.240;8.798;2023-12-20T01:40:56;9.50;;;2.03;;
31764;SDS011;18338;53.240;8.798;2023-12-20T01:43:23;8.75;;;1.77;;
31764;SDS011;18338;53.240;8.798;2023-12-20T01:45:54;10.52;;;2.00;;
31764;SDS011;18338;53.240;8.798;2023-12-20T01:48:22;13.05;;;2.38;;
31764;SDS011;18338;53.240;8.798;2023-12-20T01:50:50;7.80;;;2.33;;
31764;SDS011;18338;53.240;8.798;2023-12-20T01:53:19;14.93;;;2.35;;
31764;SDS011;18338;53.240;8.798;2023-12-20T01:55:50;8.60;;;1.90;;
31764;SDS011;18338;53.240;8.798;2023-12-20T01:58:18;7.10;;;2.37;;
31764;SDS011;18338;53.240;8.798;2023-12-20T02:00:46;10.48;;;2.08;;
31764;SDS011;18338;53.240;8.798;2023-12-20T02:03:13;12.07;;;1.95;;
31764;SDS011;18338;53.240;8.798;2023-12-20T02:05:40;7.90;;;2.08;;
31764;SDS011;18338;53.240;8.798;2023-12-20T02:08:07;9.20;;;1.95;;
31764;SDS011;18338;53.240;8.798;2023-12-20T02:10:34;9.98;;;2.22;;
31764;SDS011;18338;53.240;8.798;2023-12-20T02:13:01;6.95;;;1.70;;
31764;SDS011;18338;53.240;8.798;2023-12-20T02:15:28;7.55;;;1.92;;
31764;SDS011;18338;53.240;8.798;2023-12-20T02:17:54;8.52;;;1.52;;
31764;SDS011;18338;53.240;8.798;2023-12-20T02:20:21;10.73;;;1.77;;
31764;SDS011;18338;53.240;8.798;2023-12-20T02:22:48;11.10;;;1.65;;
31764;SDS011;18338;53.240;8.798;2023-12-20T02:25:15;10.98;;;2.30;;
31764;SDS011;18338;53.240;8.798;2023-12-20T02:27:42;9.83;;;2.23;;
31764;SDS011;18338;53.240;8.798;2023-12-20T02:30:09;10.68;;;2.47;;
31764;SDS011;18338;53.240;8.798;2023-12-20T02:32:36;7.07;;;1.70;;
31764;SDS011;18338;53.240;8.798;2023-12-20T02:35:03;11.40;;;1.90;;
31764;SDS011;18338;53.240;8.798;2023-12-20T02:37:32;10.05;;;2.17;;
31764;SDS011;18338;53.240;8.798;2023-12-20T02:39:59;12.57;;;2.40;;
31764;SDS011;18338;53.240;8.798;2023-12-20T02:42:26;8.38;;;1.83;;
31764;SDS011;18338;53.240;8.798;2023-12-20T02:44:53;12.60;;;2.08;;
31764;SDS011;18338;53.240;8.798;2023-12-20T02:47:19;7.60;;;1.80;;
31764;SDS011;18338;53.240;8.798;2023-12-20T02:49:46;11.30;;;2.38;;
31764;SDS011;18338;53.240;8.798;2023-12-20T02:52:13;9.48;;;1.83;;
31764;SDS011;18338;53.240;8.798;2023-12-20T02:54:40;10.23;;;2.35;;
31764;SDS011;18338;53.240;8.798;2023-12-20T02:57:06;8.25;;;2.13;;
31764;SDS011;18338;53.240;8.798;2023-12-20T02:59:34;10.75;;;2.22;;
31764;SDS011;18338;53.240;8.798;2023-12-20T03:02:00;12.60;;;2.40;;
31764;SDS011;18338;53.240;8.798;2023-12-20T03:04:27;12.88;;;2.13;;
31764;SDS011;18338;53.240;8.798;2023-12-20T03:06:54;8.30;;;1.88;;
31764;SDS011;18338;53.240;8.798;2023-12-20T03:09:22;9.50;;;2.65;;
31764;SDS011;18338;53.240;8.798;2023-12-20T03:11:49;9.85;;;1.98;;
31764;SDS011;18338;53.240;8.798;2023-12-20T03:14:16;6.82;;;1.85;;
31764;SDS011;18338;53.240;8.798;2023-12-20T03:16:46;8.95;;;2.13;;
31764;SDS011;18338;53.240;8.798;2023-12-20T03:19:15;11.85;;;2.20;;
31764;SDS011;18338;53.240;8.798;2023-12-20T03:21:42;9.48;;;2.22;;
31764;SDS011;18338;53.240;8.798;2023-12-20T03:24:09;11.88;;;2.58;;
31764;SDS011;18338;53.240;8.798;2023-12-20T03:26:36;7.05;;;2.42;;
31764;SDS011;18338;53.240;8.798;2023-12-20T03:29:03;12.10;;;3.85;;
31764;SDS011;18338;53.240;8.798;2023-12-20T03:31:30;11.95;;;2.35;;
31764;SDS011;18338;53.240;8.798;2023-12-20T03:33:57;7.82;;;2.03;;
31764;SDS011;18338;53.240;8.798;2023-12-20T03:36:23;12.35;;;2.22;;
31764;SDS011;18338;53.240;8.798;2023-12-20T03:38:50;13.32;;;2.20;;
31764;SDS011;18338;53.240;8.798;2023-12-20T03:41:17;15.02;;;2.85;;
31764;SDS011;18338;53.240;8.798;2023-12-20T03:43:44;9.30;;;2.17;;
31764;SDS011;18338;53.240;8.798;2023-12-20T03:46:10;7.32;;;2.08;;
31764;SDS011;18338;53.240;8.798;2023-12-20T03:48:38;9.18;;;2.20;;
31764;SDS011;18338;53.240;8.798;2023-12-20T03:51:04;12.65;;;2.85;;
31764;SDS011;18338;53.240;8.798;2023-12-20T03:53:31;10.73;;;2.38;;
31764;SDS011;18338;53.240;8.798;2023-12-20T03:55:58;12.32;;;2.33;;
31764;SDS011;18338;53.240;8.798;2023-12-20T03:58:25;14.45;;;2.40;;
31764;SDS011;18338;53.240;8.798;2023-12-20T04:00:52;16.52;;;3.50;;
31764;SDS011;18338;53.240;8.798;2023-12-20T04:03:19;10.10;;;2.65;;
31764;SDS011;18338;53.240;8.798;2023-12-20T04:05:49;8.85;;;2.10;;
31764;SDS011;18338;53.240;8.798;2023-12-20T04:08:17;14.77;;;2.38;;
31764;SDS011;18338;53.240;8.798;2023-12-20T04:10:43;12.23;;;2.75;;
31764;SDS011;18338;53.240;8.798;2023-12-20T04:13:10;5.43;;;1.80;;
31764;SDS011;18338;53.240;8.798;2023-12-20T04:15:37;9.68;;;2.20;;
31764;SDS011;18338;53.240;8.798;2023-12-20T04:18:04;8.35;;;1.95;;
31764;SDS011;18338;53.240;8.798;2023-12-20T04:20:31;14.88;;;3.22;;
31764;SDS011;18338;53.240;8.798;2023-12-20T04:22:58;11.15;;;2.05;;
31764;SDS011;18338;53.240;8.798;2023-12-20T04:25:25;14.63;;;3.92;;
31764;SDS011;18338;53.240;8.798;2023-12-20T04:27:52;8.45;;;2.20;;
31764;SDS011;18338;53.240;8.798;2023-12-20T04:30:19;9.38;;;2.70;;
31764;SDS011;18338;53.240;8.798;2023-12-20T04:32:46;10.32;;;1.90;;
31764;SDS011;18338;53.240;8.798;2023-12-20T04:35:12;9.77;;;2.67;;
31764;SDS011;18338;53.240;8.798;2023-12-20T04:37:39;9.70;;;2.10;;
31764;SDS011;18338;53.240;8.798;2023-12-20T04:40:06;8.07;;;2.25;;
31764;SDS011;18338;53.240;8.798;2023-12-20T04:42:34;7.90;;;2.50;;
31764;SDS011;18338;53.240;8.798;2023-12-20T04:45:01;10.63;;;2.58;;
31764;SDS011;18338;53.240;8.798;2023-12-20T04:47:28;11.95;;;2.92;;
31764;SDS011;18338;53.240;8.798;2023-12-20T04:49:55;10.10;;;2.20;;
31764;SDS011;18338;53.240;8.798;2023-12-20T04:52:22;11.88;;;3.05;;
31764;SDS011;18338;53.240;8.798;2023-12-20T04:54:49;11.25;;;2.60;;
31764;SDS011;18338;53.240;8.798;2023-12-20T04:57:16;8.10;;;2.75;;
31764;SDS011;18338;53.240;8.798;2023-12-20T04:59:43;8.65;;;2.40;;
31764;SDS011;18338;53.240;8.798;2023-12-20T05:02:10;12.48;;;2.83;;
31764;SDS011;18338;53.240;8.798;2023-12-20T05:04:36;10.27;;;2.70;;
31764;SDS011;18338;53.240;8.798;2023-12-20T05:07:03;11.23;;;2.05;;
31764;SDS011;18338;53.240;8.798;2023-12-20T05:09:31;17.30;;;2.85;;
31764;SDS011;18338;53.240;8.798;2023-12-20T05:11:58;6.22;;;1.70;;
31764;SDS011;18338;53.240;8.798;2023-12-20T05:14:25;10.15;;;2.10;;
31764;SDS011;18338;53.240;8.798;2023-12-20T05:16:52;7.15;;;1.70;;
31764;SDS011;18338;53.240;8.798;2023-12-20T05:19:18;9.15;;;2.00;;
31764;SDS011;18338;53.240;8.798;2023-12-20T05:21:45;11.82;;;2.92;;
31764;SDS011;18338;53.240;8.798;2023-12-20T05:24:12;7.88;;;2.50;;
31764;SDS011;18338;53.240;8.798;2023-12-20T05:26:39;13.55;;;2.15;;
31764;SDS011;18338;53.240;8.798;2023-12-20T05:29:11;10.73;;;2.40;;
31764;SDS011;18338;53.240;8.798;2023-12-20T05:32:23;11.32;;;2.78;;
31764;SDS011;18338;53.240;8.798;2023-12-20T05:34:52;11.77;;;2.80;;
31764;SDS011;18338;53.240;8.798;2023-12-20T05:37:19;12.02;;;2.40;;
31764;SDS011;18338;53.240;8.798;2023-12-20T05:39:46;15.90;;;3.40;;
31764;SDS011;18338;53.240;8.798;2023-12-20T05:42:13;15.45;;;2.42;;
31764;SDS011;18338;53.240;8.798;2023-12-20T05:44:40;13.85;;;3.60;;
31764;SDS011;18338;53.240;8.798;2023-12-20T05:47:07;10.55;;;2.38;;
31764;SDS011;18338;53.240;8.798;2023-12-20T05:49:34;12.80;;;3.05;;
31764;SDS011;18338;53.240;8.798;2023-12-20T05:52:00;10.15;;;2.72;;
31764;SDS011;18338;53.240;8.798;2023-12-20T05:54:27;15.90;;;3.10;;
31764;SDS011;18338;53.240;8.798;2023-12-20T05:56:54;13.25;;;2.70;;
31764;SDS011;18338;53.240;8.798;2023-12-20T05:59:21;13.55;;;2.60;;
31764;SDS011;18338;53.240;8.798;2023-12-20T06:01:48;10.07;;;2.45;;
31764;SDS011;18338;53.240;8.798;2023-12-20T06:04:22;14.80;;;2.80;;
31764;SDS011;18338;53.240;8.798;2023-12-20T06:06:55;12.55;;;2.40;;
31764;SDS011;18338;53.240;8.798;2023-12-20T06:09:29;11.75;;;2.65;;
31764;SDS011;18338;53.240;8.798;2023-12-20T06:11:57;12.82;;;2.17;;
31764;SDS011;18338;53.240;8.798;2023-12-20T06:14:24;9.68;;;2.28;;
31764;SDS011;18338;53.240;8.798;2023-12-20T06:16:51;14.07;;;2.88;;
31764;SDS011;18338;53.240;8.798;2023-12-20T06:19:17;14.82;;;3.15;;
31764;SDS011;18338;53.240;8.798;2023-12-20T06:21:44;14.90;;;3.45;;
31764;SDS011;18338;53.240;8.798;2023-12-20T06:24:11;15.43;;;3.25;;
31764;SDS011;18338;53.240;8.798;2023-12-20T06:26:38;11.77;;;3.30;;
31764;SDS011;18338;53.240;8.798;2023-12-20T06:29:05;15.07;;;2.40;;
31764;SDS011;18338;53.240;8.798;2023-12-20T06:31:32;13.27;;;2.67;;
31764;SDS011;18338;53.240;8.798;2023-12-20T06:33:59;15.02;;;3.80;;
31764;SDS011;18338;53.240;8.798;2023-12-20T06:36:26;14.68;;;3.33;;
31764;SDS011;18338;53.240;8.798;2023-12-20T06:38:53;12.50;;;2.55;;
31764;SDS011;18338;53.240;8.798;2023-12-20T06:41:20;13.40;;;3.35;;
31764;SDS011;18338;53.240;8.798;2023-12-20T06:43:47;10.18;;;2.33;;
31764;SDS011;18338;53.240;8.798;2023-12-20T06:46:16;11.45;;;2.67;;
31764;SDS011;18338;53.240;8.798;2023-12-20T06:48:44;10.10;;;3.28;;
31764;SDS011;18338;53.240;8.798;2023-12-20T06:51:12;15.52;;;3.70;;
31764;SDS011;18338;53.240;8.798;2023-12-20T06:53:40;16.02;;;4.03;;
31764;SDS011;18338;53.240;8.798;2023-12-20T06:56:07;12.02;;;3.40;;
31764;SDS011;18338;53.240;8.798;2023-12-20T06:58:35;14.23;;;2.58;;
31764;SDS011;18338;53.240;8.798;2023-12-20T07:01:03;16.15;;;3.40;;
31764;SDS011;18338;53.240;8.798;2023-12-20T07:03:31;23.02;;;3.10;;
31764;SDS011;18338;53.240;8.798;2023-12-20T07:05:57;11.18;;;3.42;;
31764;SDS011;18338;53.240;8.798;2023-12-20T07:08:24;12.40;;;2.90;;
31764;SDS011;18338;53.240;8.798;2023-12-20T07:10:51;19.17;;;4.22;;
31764;SDS011;18338;53.240;8.798;2023-12-20T07:13:17;14.82;;;2.95;;
31764;SDS011;18338;53.240;8.798;2023-12-20T07:15:44;17.27;;;3.67;;
31764;SDS011;18338;53.240;8.798;2023-12-20T07:18:11;13.05;;;3.35;;
31764;SDS011;18338;53.240;8.798;2023-12-20T07:20:38;11.30;;;3.30;;
31764;SDS011;18338;53.240;8.798;2023-12-20T07:23:05;15.57;;;3.40;;
31764;SDS011;18338;53.240;8.798;2023-12-20T07:25:31;13.00;;;3.50;;
31764;SDS011;18338;53.240;8.798;2023-12-20T07:27:59;12.82;;;2.92;;
31764;SDS011;18338;53.240;8.798;2023-12-20T07:30:26;12.35;;;2.92;;
31764;SDS011;18338;53.240;8.798;2023-12-20T07:32:53;13.77;;;3.35;;
31764;SDS011;18338;53.240;8.798;2023-12-20T07:35:20;11.57;;;3.05;;
31764;SDS011;18338;53.240;8.798;2023-12-20T07:37:47;12.13;;;3.25;;
31764;SDS011;18338;53.240;8.798;2023-12-20T07:40:14;12.10;;;2.80;;
31764;SDS011;18338;53.240;8.798;2023-12-20T07:42:43;10.63;;;2.97;;
31764;SDS011;18338;53.240;8.798;2023-12-20T07:45:10;14.00;;;3.13;;
31764;SDS011;18338;53.240;8.798;2023-12-20T07:47:37;9.23;;;2.40;;
31764;SDS011;18338;53.240;8.798;2023-12-20T07:50:05;13.70;;;3.25;;
31764;SDS011;18338;53.240;8.798;2023-12-20T07:52:32;11.68;;;2.45;;
31764;SDS011;18338;53.240;8.798;2023-12-20T07:54:59;12.93;;;3.38;;
31764;SDS011;18338;53.240;8.798;2023-12-20T07:57:28;9.95;;;2.90;;
31764;SDS011;18338;53.240;8.798;2023-12-20T07:59:55;10.70;;;3.28;;
31764;SDS011;18338;53.240;8.798;2023-12-20T08:02:23;11.10;;;3.10;;
31764;SDS011;18338;53.240;8.798;2023-12-20T08:04:49;10.90;;;2.92;;
31764;SDS011;18338;53.240;8.798;2023-12-20T08:07:16;15.43;;;3.53;;
31764;SDS011;18338;53.240;8.798;2023-12-20T08:09:43;17.63;;;3.97;;
31764;SDS011;18338;53.240;8.798;2023-12-20T08:12:10;6.82;;;2.55;;
31764;SDS011;18338;53.240;8.798;2023-12-20T08:14:37;17.27;;;3.78;;
31764;SDS011;18338;53.240;8.798;2023-12-20T08:17:04;11.63;;;4.57;;
31764;SDS011;18338;53.240;8.798;2023-12-20T08:19:31;8.00;;;3.13;;
31764;SDS011;18338;53.240;8.798;2023-12-20T08:21:58;11.77;;;3.42;;
31764;SDS011;18338;53.240;8.798;2023-12-20T08:24:25;16.25;;;3.00;;
31764;SDS011;18338;53.240;8.798;2023-12-20T08:26:51;11.60;;;3.88;;
31764;SDS011;18338;53.240;8.798;2023-12-20T08:29:18;10.25;;;3.15;;
31764;SDS011;18338;53.240;8.798;2023-12-20T08:31:45;11.38;;;3.08;;
31764;SDS011;18338;53.240;8.798;2023-12-20T08:34:13;13.95;;;3.47;;
31764;SDS011;18338;53.240;8.798;2023-12-20T08:36:41;15.43;;;3.35;;
31764;SDS011;18338;53.240;8.798;2023-12-20T08:39:08;10.05;;;2.50;;
31764;SDS011;18338;53.240;8.798;2023-12-20T08:41:35;13.18;;;3.15;;
31764;SDS011;18338;53.240;8.798;2023-12-20T08:44:03;16.88;;;3.13;;
31764;SDS011;18338;53.240;8.798;2023-12-20T08:46:30;13.52;;;3.10;;
31764;SDS011;18338;53.240;8.798;2023-12-20T08:48:57;14.50;;;4.05;;
31764;SDS011;18338;53.240;8.798;2023-12-20T08:51:24;9.48;;;3.00;;
31764;SDS011;18338;53.240;8.798;2023-12-20T08:53:52;12.90;;;3.17;;
31764;SDS011;18338;53.240;8.798;2023-12-20T08:56:19;13.02;;;3.17;;
31764;SDS011;18338;53.240;8.798;2023-12-20T08:58:46;13.40;;;3.90;;
31764;SDS011;18338;53.240;8.798;2023-12-20T09:01:13;11.73;;;3.28;;
31764;SDS011;18338;53.240;8.798;2023-12-20T09:03:40;10.82;;;3.20;;
31764;SDS011;18338;53.240;8.798;2023-12-20T09:06:07;9.25;;;2.80;;
31764;SDS011;18338;53.240;8.798;2023-12-20T09:08:35;12.85;;;2.95;;
31764;SDS011;18338;53.240;8.798;2023-12-20T09:11:03;12.38;;;3.20;;
31764;SDS011;18338;53.240;8.798;2023-12-20T09:13:30;23.50;;;3.80;;
31764;SDS011;18338;53.240;8.798;2023-12-20T09:15:58;15.20;;;3.30;;
31764;SDS011;18338;53.240;8.798;2023-12-20T09:18:25;17.10;;;3.10;;
31764;SDS011;18338;53.240;8.798;2023-12-20T09:20:52;10.50;;;2.88;;
31764;SDS011;18338;53.240;8.798;2023-12-20T09:23:19;6.68;;;1.45;;
31764;SDS011;18338;53.240;8.798;2023-12-20T09:25:46;4.18;;;1.10;;
31764;SDS011;18338;53.240;8.798;2023-12-20T09:28:12;3.97;;;1.08;;
31764;SDS011;18338;53.240;8.798;2023-12-20T09:30:39;3.13;;;0.80;;
31764;SDS011;18338;53.240;8.798;2023-12-20T09:33:07;8.27;;;2.20;;
31764;SDS011;18338;53.240;8.798;2023-12-20T09:35:34;4.82;;;0.95;;
31764;SDS011;18338;53.240;8.798;2023-12-20T09:38:02;3.92;;;1.13;;
31764;SDS011;18338;53.240;8.798;2023-12-20T09:40:28;2.63;;;0.93;;
31764;SDS011;18338;53.240;8.798;2023-12-20T09:42:59;7.28;;;1.73;;
31764;SDS011;18338;53.240;8.798;2023-12-20T09:45:31;2.35;;;0.40;;
31764;SDS011;18338;53.240;8.798;2023-12-20T09:47:58;3.38;;;1.08;;
31764;SDS011;18338;53.240;8.798;2023-12-20T09:50:25;2.15;;;0.63;;
31764;SDS011;18338;53.240;8.798;2023-12-20T09:52:53;3.90;;;1.25;;
31764;SDS011;18338;53.240;8.798;2023-12-20T09:55:22;1.98;;;0.60;;
31764;SDS011;18338;53.240;8.798;2023-12-20T09:57:51;3.28;;;0.63;;
31764;SDS011;18338;53.240;8.798;2023-12-20T10:00:19;3.00;;;0.80;;
31764;SDS011;18338;53.240;8.798;2023-12-20T10:02:50;3.03;;;0.73;;
31764;SDS011;18338;53.240;8.798;2023-12-20T10:05:26;5.82;;;0.90;;
31764;SDS011;18338;53.240;8.798;2023-12-20T10:07:53;1.73;;;0.60;;
31764;SDS011;18338;53.240;8.798;2023-12-20T10:10:20;2.67;;;0.98;;
31764;SDS011;18338;53.240;8.798;2023-12-20T10:13:03;3.88;;;0.63;;
31764;SDS011;18338;53.240;8.798;2023-12-20T10:15:35;3.67;;;0.70;;
31764;SDS011;18338;53.240;8.798;2023-12-20T10:18:02;2.78;;;0.90;;
31764;SDS011;18338;53.240;8.798;2023-12-20T10:20:30;1.90;;;0.50;;
31764;SDS011;18338;53.240;8.798;2023-12-20T10:22:58;3.88;;;0.80;;
31764;SDS011;18338;53.240;8.798;2023-12-20T10:25:25;5.88;;;0.93;;
31764;SDS011;18338;53.240;8.798;2023-12-20T10:28:09;2.90;;;0.70;;
31764;SDS011;18338;53.240;8.798;2023-12-20T10:30:37;2.90;;;0.63;;
31764;SDS011;18338;53.240;8.798;2023-12-20T10:33:08;2.17;;;0.57;;
31764;SDS011;18338;53.240;8.798;2023-12-20T10:35:37;5.75;;;1.02;;
31764;SDS011;18338;53.240;8.798;2023-12-20T10:38:08;3.22;;;0.68;;
31764;SDS011;18338;53.240;8.798;2023-12-20T10:40:35;4.63;;;0.95;;
31764;SDS011;18338;53.240;8.798;2023-12-20T10:43:04;1.85;;;0.60;;
31764;SDS011;18338;53.240;8.798;2023-12-20T10:45:31;3.05;;;0.70;;
31764;SDS011;18338;53.240;8.798;2023-12-20T10:47:58;3.53;;;1.02;;
31764;SDS011;18338;53.240;8.798;2023-12-20T10:50:26;2.35;;;0.52;;
31764;SDS011;18338;53.240;8.798;2023-12-20T10:52:55;2.65;;;0.82;;
31764;SDS011;18338;53.240;8.798;2023-12-20T10:55:22;4.35;;;1.02;;
31764;SDS011;18338;53.240;8.798;2023-12-20T10:58:06;3.53;;;0.50;;
31764;SDS011;18338;53.240;8.798;2023-12-20T11:00:40;4.95;;;0.80;;
31764;SDS011;18338;53.240;8.798;2023-12-20T11:03:10;3.70;;;1.17;;
31764;SDS011;18338;53.240;8.798;2023-12-20T11:05:44;3.40;;;1.15;;
31764;SDS011;18338;53.240;8.798;2023-12-20T11:08:28;4.13;;;0.60;;
31764;SDS011;18338;53.240;8.798;2023-12-20T11:11:14;2.60;;;0.90;;
31764;SDS011;18338;53.240;8.798;2023-12-20T11:14:02;4.63;;;1.00;;
31764;SDS011;18338;53.240;8.798;2023-12-20T11:16:32;5.05;;;0.70;;
31764;SDS011;18338;53.240;8.798;2023-12-20T11:19:13;2.30;;;0.70;;
31764;SDS011;18338;53.240;8.798;2023-12-20T11:21:40;5.43;;;0.90;;
31764;SDS011;18338;53.240;8.798;2023-12-20T11:24:08;5.35;;;1.08;;
31764;SDS011;18338;53.240;8.798;2023-12-20T11:26:36;4.72;;;1.13;;
31764;SDS011;18338;53.240;8.798;2023-12-20T11:32:02;7.20;;;0.82;;
31764;SDS011;18338;53.240;8.798;2023-12-20T11:34:31;4.35;;;1.23;;
31764;SDS011;18338;53.240;8.798;2023-12-20T11:37:00;5.35;;;2.08;;
31764;SDS011;18338;53.240;8.798;2023-12-20T11:39:29;4.45;;;1.35;;
31764;SDS011;18338;53.240;8.798;2023-12-20T11:41:57;4.22;;;0.82;;
31764;SDS011;18338;53.240;8.798;2023-12-20T11:44:30;5.55;;;1.02;;
31764;SDS011;18338;53.240;8.798;2023-12-20T11:46:58;7.43;;;1.48;;
31764;SDS011;18338;53.240;8.798;2023-12-20T11:49:25;5.00;;;1.35;;
31764;SDS011;18338;53.240;8.798;2023-12-20T11:51:52;3.10;;;1.05;;
31764;SDS011;18338;53.240;8.798;2023-12-20T11:54:19;3.83;;;1.20;;
31764;SDS011;18338;53.240;8.798;2023-12-20T11:56:46;6.57;;;1.27;;
31764;SDS011;18338;53.240;8.798;2023-12-20T11:59:14;7.00;;;1.80;;
31764;SDS011;18338;53.240;8.798;2023-12-20T12:01:49;5.43;;;1.65;;
31764;SDS011;18338;53.240;8.798;2023-12-20T12:04:17;4.60;;;1.15;;
31764;SDS011;18338;53.240;8.798;2023-12-20T12:06:44;5.82;;;1.30;;
31764;SDS011;18338;53.240;8.798;2023-12-20T12:09:12;5.75;;;1.08;;
31764;SDS011;18338;53.240;8.798;2023-12-20T12:11:38;12.13;;;1.60;;
31764;SDS011;18338;53.240;8.798;2023-12-20T12:14:06;10.20;;;1.83;;
31764;SDS011;18338;53.240;8.798;2023-12-20T12:16:34;10.02;;;1.65;;
31764;SDS011;18338;53.240;8.798;2023-12-20T12:19:00;6.45;;;1.70;;
31764;SDS011;18338;53.240;8.798;2023-12-20T12:21:28;4.68;;;1.33;;
31764;SDS011;18338;53.240;8.798;2023-12-20T12:24:08;9.80;;;1.13;;
31764;SDS011;18338;53.240;8.798;2023-12-20T12:26:36;5.97;;;1.08;;
31764;SDS011;18338;53.240;8.798;2023-12-20T12:29:03;3.17;;;1.10;;
31764;SDS011;18338;53.240;8.798;2023-12-20T12:31:34;6.10;;;1.58;;
31764;SDS011;18338;53.240;8.798;2023-12-20T12:34:14;4.80;;;1.55;;
31764;SDS011;18338;53.240;8.798;2023-12-20T12:37:38;5.13;;;1.20;;
31764;SDS011;18338;53.240;8.798;2023-12-20T12:40:19;4.80;;;0.75;;
31764;SDS011;18338;53.240;8.798;2023-12-20T12:42:49;5.13;;;0.75;;
31764;SDS011;18338;53.240;8.798;2023-12-20T12:45:16;5.90;;;1.05;;
31764;SDS011;18338;53.240;8.798;2023-12-20T12:47:42;4.68;;;1.23;;
31764;SDS011;18338;53.240;8.798;2023-12-20T12:50:10;5.68;;;1.40;;
31764;SDS011;18338;53.240;8.798;2023-12-20T12:52:37;9.25;;;1.77;;
31764;SDS011;18338;53.240;8.798;2023-12-20T12:55:04;8.70;;;1.73;;
31764;SDS011;18338;53.240;8.798;2023-12-20T12:57:31;9.30;;;2.22;;
31764;SDS011;18338;53.240;8.798;2023-12-20T12:59:59;7.40;;;1.60;;
31764;SDS011;18338;53.240;8.798;2023-12-20T13:02:26;9.57;;;1.90;;
31764;SDS011;18338;53.240;8.798;2023-12-20T13:04:53;5.97;;;1.63;;
31764;SDS011;18338;53.240;8.798;2023-12-20T13:07:20;7.97;;;2.13;;
31764;SDS011;18338;53.240;8.798;2023-12-20T13:09:47;8.80;;;2.05;;
31764;SDS011;18338;53.240;8.798;2023-12-20T13:12:14;8.18;;;1.73;;
31764;SDS011;18338;53.240;8.798;2023-12-20T13:14:41;6.75;;;1.42;;
31764;SDS011;18338;53.240;8.798;2023-12-20T13:17:08;12.98;;;2.13;;
31764;SDS011;18338;53.240;8.798;2023-12-20T13:19:53;11.70;;;1.95;;
31764;SDS011;18338;53.240;8.798;2023-12-20T13:22:50;11.65;;;1.70;;
31764;SDS011;18338;53.240;8.798;2023-12-20T13:25:38;9.45;;;2.15;;
31764;SDS011;18338;53.240;8.798;2023-12-20T13:28:24;10.43;;;2.35;;
31764;SDS011;18338;53.240;8.798;2023-12-20T13:30:51;9.30;;;2.28;;
31764;SDS011;18338;53.240;8.798;2023-12-20T13:33:18;21.60;;;5.80;;
31764;SDS011;18338;53.240;8.798;2023-12-20T13:35:45;11.90;;;2.85;;
31764;SDS011;18338;53.240;8.798;2023-12-20T13:38:12;12.63;;;2.30;;
31764;SDS011;18338;53.240;8.798;2023-12-20T13:40:39;9.07;;;1.80;;
31764;SDS011;18338;53.240;8.798;2023-12-20T13:43:06;12.60;;;2.55;;
31764;SDS011;18338;53.240;8.798;2023-12-20T13:45:33;8.82;;;2.35;;
31764;SDS011;18338;53.240;8.798;2023-12-20T13:48:00;11.43;;;2.22;;
31764;SDS011;18338;53.240;8.798;2023-12-20T13:50:26;9.63;;;2.33;;
31764;SDS011;18338;53.240;8.798;2023-12-20T13:52:53;11.25;;;2.33;;
31764;SDS011;18338;53.240;8.798;2023-12-20T13:55:20;9.85;;;2.38;;
31764;SDS011;18338;53.240;8.798;2023-12-20T13:57:51;9.82;;;1.90;;
31764;SDS011;18338;53.240;8.798;2023-12-20T14:00:21;12.15;;;2.88;;
31764;SDS011;18338;53.240;8.798;2023-12-20T14:02:49;10.43;;;2.25;;
31764;SDS011;18338;53.240;8.798;2023-12-20T14:05:16;8.35;;;1.80;;
31764;SDS011;18338;53.240;8.798;2023-12-20T14:07:44;10.60;;;2.40;;
31764;SDS011;18338;53.240;8.798;2023-12-20T14:10:12;8.30;;;2.00;;
31764;SDS011;18338;53.240;8.798;2023-12-20T14:12:40;8.93;;;2.00;;
31764;SDS011;18338;53.240;8.798;2023-12-20T14:15:07;11.25;;;2.28;;
31764;SDS011;18338;53.240;8.798;2023-12-20T14:17:40;12.68;;;2.38;;
31764;SDS011;18338;53.240;8.798;2023-12-20T14:20:08;9.35;;;2.30;;
31764;SDS011;18338;53.240;8.798;2023-12-20T14:22:36;11.38;;;4.13;;
31764;SDS011;18338;53.240;8.798;2023-12-20T14:25:05;13.75;;;2.33;;
31764;SDS011;18338;53.240;8.798;2023-12-20T14:27:32;8.02;;;2.63;;
31764;SDS011;18338;53.240;8.798;2023-12-20T14:29:59;11.18;;;2.25;;
31764;SDS011;18338;53.240;8.798;2023-12-20T14:32:26;9.75;;;2.25;;
31764;SDS011;18338;53.240;8.798;2023-12-20T14:34:54;11.85;;;1.90;;
31764;SDS011;18338;53.240;8.798;2023-12-20T14:37:21;12.00;;;3.70;;
31764;SDS011;18338;53.240;8.798;2023-12-20T14:39:48;8.55;;;2.35;;
31764;SDS011;18338;53.240;8.798;2023-12-20T14:42:15;10.70;;;2.15;;
31764;SDS011;18338;53.240;8.798;2023-12-20T14:44:42;8.50;;;1.65;;
31764;SDS011;18338;53.240;8.798;2023-12-20T14:47:09;12.75;;;2.30;;
31764;SDS011;18338;53.240;8.798;2023-12-20T14:49:36;12.98;;;2.85;;